EmailTwitter


Surface observations / France / LFBP (07610)

Regions: Quebec | Canada | USA | Europe | France | UK | Elsewhere
Station
Display
Info & Location for LFBP (07610) | Help decoding METAR

Weather Conditions observed on 2018/05/28 at 05:00 UTC at PONT-LONG-UZEIN/, FR (LFBP)

Sky conditions: overcast.

Temperature: 15.0 Celsius.

Dewpoint: 13.0 Celsius.

Relative Humidity: 88%

Winds: West at 11 km/h or 6 knots.

Mean Sea level Pressure: 101.50 kilopascals.

Horizontal visibility: 6.21 statute miles or 9.94 kilometers.

Height of the Ceiling: 427 metres ( 1400 feet ).

Coded METAR:

LFBP 280500Z AUTO 28006KT 9999 FEW008 OVC014 15/13 Q1015 TEMPO 1500 RADZ BKN005=